Terminal Aerodrome Forecast
Issued by NWS Amarillo, TX

Home | Current Version | Previous Version | Text Only | Print | Product List | Glossary On
Versions: 1 2 3 4 5 6 7 8 9 10 11 12 13 14
006
FTUS44 KAMA 140538
TAFDHT
TAF
KDHT 140538Z 1406/1506 36008KT P6SM SCT100 OVC300
     FM141200 36013KT P6SM SCT080 OVC300
     FM150000 35008KT P6SM SCT120 SCT300=

USA.gov is the U.S. government's official web portal to all federal, state and local government web resources and services.